createdAt,value
2019-04-29T00:05:14.265Z,7.80
2019-04-29T00:11:18.770Z,7.90
2019-04-29T00:17:31.923Z,8.00
2019-04-29T00:23:36.309Z,8.00
2019-04-29T00:29:40.529Z,8.00
2019-04-29T00:35:44.796Z,8.00
2019-04-29T00:42:13.983Z,7.70
2019-04-29T00:48:18.340Z,8.00
2019-04-29T00:54:31.788Z,7.90
2019-04-29T01:00:38.877Z,8.00
2019-04-29T01:06:43.140Z,8.00
2019-04-29T01:12:47.434Z,8.00
2019-04-29T01:18:51.710Z,8.00
2019-04-29T01:24:55.980Z,7.90
2019-04-29T01:31:04.430Z,7.70
2019-04-29T01:37:08.688Z,7.70
2019-04-29T01:43:13.101Z,7.60
2019-04-29T01:49:17.307Z,7.60
2019-04-29T01:55:21.618Z,7.50
2019-04-29T02:01:26.095Z,7.40
2019-04-29T02:07:30.300Z,7.30
2019-04-29T02:13:36.035Z,7.20
2019-04-29T02:19:40.348Z,7.00
2019-04-29T02:25:45.447Z,6.70
2019-04-29T02:31:49.736Z,6.50
2019-04-29T02:37:54.065Z,6.40
2019-04-29T02:43:59.938Z,6.30
2019-04-29T02:50:04.400Z,6.20
2019-04-29T02:56:08.685Z,6.30
2019-04-29T03:02:22.003Z,6.20
2019-04-29T03:08:26.288Z,6.10
2019-04-29T03:14:30.590Z,5.90
2019-04-29T03:20:56.592Z,5.90
2019-04-29T03:27:00.954Z,5.80
2019-04-29T03:33:05.329Z,5.70
2019-04-29T03:39:09.567Z,5.50
2019-04-29T03:45:13.804Z,5.60
2019-04-29T03:51:18.059Z,5.70
2019-04-29T03:57:22.336Z,5.50
2019-04-29T04:03:33.728Z,5.40
2019-04-29T04:09:38.142Z,5.40
2019-04-29T04:15:42.475Z,5.40
2019-04-29T04:21:46.826Z,5.30
2019-04-29T04:27:51.173Z,5.30
2019-04-29T04:33:55.526Z,5.30
2019-04-29T04:39:59.725Z,5.20
2019-04-29T04:46:04.021Z,5.30
2019-04-29T04:52:08.288Z,5.20
2019-04-29T04:58:12.585Z,5.10
2019-04-29T05:04:16.870Z,5.10
2019-04-29T05:10:21.072Z,5.10
2019-04-29T05:16:25.336Z,5.40
2019-04-29T05:22:29.590Z,5.60
2019-04-29T05:28:33.874Z,6.20
2019-04-29T05:34:41.922Z,6.70
2019-04-29T05:40:48.466Z,7.00
2019-04-29T05:46:58.840Z,7.50
2019-04-29T05:53:11.415Z,8.10
2019-04-29T05:59:15.796Z,8.50
2019-04-29T06:05:20.052Z,8.70
2019-04-29T06:11:24.266Z,9.10
2019-04-29T06:17:28.643Z,9.50
2019-04-29T06:23:32.847Z,10.00
2019-04-29T06:29:37.020Z,10.50
2019-04-29T06:35:43.352Z,11.40
2019-04-29T06:41:47.483Z,11.80
2019-04-29T06:47:51.689Z,12.40
2019-04-29T06:53:56.022Z,12.80
2019-04-29T07:00:00.271Z,13.40
2019-04-29T07:06:04.645Z,13.80
2019-04-29T07:12:12.602Z,13.80
2019-04-29T07:18:14.779Z,14.20
2019-04-29T07:24:20.428Z,14.60
2019-04-29T07:30:24.823Z,15.10
2019-04-29T07:36:29.129Z,15.50
2019-04-29T07:42:33.438Z,15.70
2019-04-29T07:48:41.849Z,15.80
2019-04-29T07:54:47.669Z,16.50
2019-04-29T08:00:50.016Z,16.00
2019-04-29T08:06:55.264Z,17.20
2019-04-29T08:12:59.978Z,16.80
2019-04-29T08:19:05.013Z,17.40
2019-04-29T08:25:09.634Z,16.80
2019-04-29T08:31:16.685Z,17.10
2019-04-29T08:37:19.957Z,18.00
2019-04-29T08:43:45.944Z,17.60
2019-04-29T08:49:50.201Z,17.60
2019-04-29T08:55:54.389Z,17.10
2019-04-29T09:01:58.664Z,17.00
2019-04-29T09:08:02.948Z,17.50
2019-04-29T09:14:07.234Z,16.90
2019-04-29T09:20:12.047Z,16.20
2019-04-29T09:26:39.758Z,16.40
2019-04-29T09:32:43.980Z,16.10
2019-04-29T09:38:48.239Z,16.60
2019-04-29T09:45:14.541Z,17.00
2019-04-29T09:51:18.231Z,17.20
2019-04-29T09:57:22.751Z,17.40
2019-04-29T10:03:54.827Z,18.40
2019-04-29T10:10:02.508Z,17.40
2019-04-29T10:16:31.637Z,17.20
2019-04-29T10:22:36.233Z,17.80
2019-04-29T10:28:51.959Z,17.40
2019-04-29T10:34:56.377Z,17.40
2019-04-29T10:41:09.392Z,17.50
2019-04-29T10:47:21.671Z,17.20
2019-04-29T10:53:28.802Z,17.00
2019-04-29T10:59:36.329Z,17.80
2019-04-29T11:06:00.033Z,17.60
2019-04-29T11:11:53.409Z,17.20
2019-04-29T11:17:59.853Z,17.70
2019-04-29T11:24:13.694Z,17.40
2019-04-29T11:30:21.787Z,17.50
2019-04-29T11:36:26.348Z,17.30
2019-04-29T11:42:36.430Z,17.20
2019-04-29T11:48:39.617Z,17.60
2019-04-29T11:54:43.891Z,17.60
2019-04-29T12:01:08.644Z,17.40
2019-04-29T12:07:13.170Z,17.60
2019-04-29T12:13:28.393Z,17.60
2019-04-29T12:19:32.939Z,17.80
2019-04-29T12:25:37.271Z,18.80
2019-04-29T12:31:58.678Z,17.50
2019-04-29T12:38:40.601Z,16.70
2019-04-29T12:44:52.046Z,16.30
2019-04-29T12:50:57.583Z,15.90
2019-04-29T12:57:02.098Z,16.00
2019-04-29T13:03:30.913Z,15.90
2019-04-29T13:09:38.708Z,15.80
2019-04-29T13:16:11.874Z,16.00
2019-04-29T13:22:17.174Z,15.90
2019-04-29T13:28:29.881Z,16.10
2019-04-29T13:34:33.457Z,16.10
2019-04-29T13:40:39.491Z,16.10
2019-04-29T13:47:00.218Z,16.00
2019-04-29T13:53:04.553Z,16.20
2019-04-29T13:59:12.430Z,16.80
2019-04-29T14:05:17.616Z,16.80
2019-04-29T14:11:25.433Z,16.40
2019-04-29T14:17:31.768Z,16.10
2019-04-29T14:23:33.856Z,16.30
2019-04-29T14:29:38.131Z,16.30
2019-04-29T14:35:50.945Z,16.30
2019-04-29T14:41:58.843Z,16.30
2019-04-29T14:48:24.055Z,16.30
2019-04-29T14:54:28.325Z,16.10
2019-04-29T15:00:49.955Z,15.70
2019-04-29T15:06:54.328Z,15.70
2019-04-29T15:13:11.469Z,15.50
2019-04-29T15:19:24.657Z,15.50
2019-04-29T15:25:29.015Z,15.50
2019-04-29T15:31:33.748Z,15.80
2019-04-29T15:37:37.957Z,15.70
2019-04-29T15:43:47.848Z,15.90
2019-04-29T15:49:48.260Z,15.80
2019-04-29T15:56:06.154Z,15.90
2019-04-29T16:01:59.079Z,16.10
2019-04-29T16:08:09.781Z,16.20
2019-04-29T16:14:20.421Z,16.10
2019-04-29T16:20:24.646Z,15.90
2019-04-29T16:26:30.333Z,15.70
2019-04-29T16:32:39.789Z,15.50
2019-04-29T16:38:46.263Z,15.60
2019-04-29T16:44:50.091Z,15.40
2019-04-29T16:50:54.354Z,15.40
2019-04-29T16:56:58.656Z,15.20
2019-04-29T17:03:02.947Z,15.10
2019-04-29T17:09:25.951Z,14.90
2019-04-29T17:15:30.411Z,15.00
2019-04-29T17:21:35.046Z,14.80
2019-04-29T17:27:52.657Z,14.70
2019-04-29T17:34:54.914Z,14.50
2019-04-29T17:40:29.562Z,14.40
2019-04-29T17:46:55.914Z,14.20
2019-04-29T17:53:00.261Z,14.00
2019-04-29T17:59:22.720Z,13.90
2019-04-29T18:05:54.488Z,13.80
2019-04-29T18:11:51.522Z,13.60
2019-04-29T18:17:53.430Z,13.50
2019-04-29T18:24:08.489Z,13.30
2019-04-29T18:30:16.333Z,13.10
2019-04-29T18:36:26.235Z,13.00
2019-04-29T18:42:28.153Z,12.70
2019-04-29T18:48:32.481Z,12.60
2019-04-29T18:54:36.678Z,12.40
2019-04-29T19:00:41.049Z,12.30
2019-04-29T19:06:45.322Z,12.10
2019-04-29T19:12:58.133Z,12.00
2019-04-29T19:19:00.160Z,11.70
2019-04-29T19:25:01.490Z,11.50
2019-04-29T19:31:09.341Z,11.30
2019-04-29T19:37:11.817Z,11.20
2019-04-29T19:43:18.882Z,11.00
2019-04-29T19:49:22.098Z,10.80
2019-04-29T19:55:27.809Z,10.70
2019-04-29T20:01:32.956Z,10.50
2019-04-29T20:07:42.246Z,10.40
2019-04-29T20:13:52.023Z,10.30
2019-04-29T20:20:12.345Z,10.20
2019-04-29T20:26:23.266Z,10.10
2019-04-29T20:32:27.894Z,10.00
2019-04-29T20:38:33.907Z,9.90
2019-04-29T20:44:36.569Z,10.00
2019-04-29T20:50:41.001Z,9.80
2019-04-29T20:56:47.310Z,9.70
2019-04-29T21:02:51.945Z,9.60
2019-04-29T21:08:56.250Z,9.60
2019-04-29T21:15:07.386Z,9.50
2019-04-29T21:21:08.864Z,9.50
2019-04-29T21:27:15.945Z,9.40
2019-04-29T21:33:21.461Z,9.40
2019-04-29T21:39:55.082Z,9.40
2019-04-29T21:46:08.288Z,9.30
2019-04-29T21:52:12.530Z,9.20
2019-04-29T21:58:16.836Z,9.20
2019-04-29T22:04:21.190Z,9.10
2019-04-29T22:10:28.997Z,9.00
2019-04-29T22:16:31.757Z,9.00
2019-04-29T22:22:36.606Z,8.90
2019-04-29T22:28:41.162Z,8.90
2019-04-29T22:34:49.438Z,8.70
2019-04-29T22:40:52.848Z,8.70
2019-04-29T22:46:57.241Z,8.60
2019-04-29T22:53:07.366Z,8.60
2019-04-29T22:59:07.477Z,8.50
2019-04-29T23:05:12.186Z,8.30
2019-04-29T23:11:16.476Z,8.20
2019-04-29T23:17:20.764Z,8.10
2019-04-29T23:23:33.524Z,8.00
2019-04-29T23:29:43.144Z,8.00
2019-04-29T23:35:44.679Z,8.00
2019-04-29T23:41:48.796Z,8.00
2019-04-29T23:47:53.024Z,8.10
2019-04-29T23:54:03.741Z,8.10
